Time;durP1;ratioP1;P1;durP2;ratioP2;P2;SDS_P1;SDS_P2;PMS_P1;PMS_P2;Temp;Humidity;BMP_temperature;BMP_pressure;BME280_temperature;BME280_humidity;BME280_pressure;Samples;Min_cycle;Max_cycle;Signal;HPM_P1;HPM_P2
2024/02/13 00:00:10;;;;;;;8.90;4.60;;;;;;;9.98;75.06;98839.96;79299;1296;3013093;-60
2024/02/13 00:02:39;;;;;;;8.70;4.80;;;;;;;10.02;74.50;98839.90;78418;1296;3050888;-62
2024/02/13 00:05:07;;;;;;;8.20;5.10;;;;;;;10.03;74.52;98836.69;79228;1302;3012909;-64
2024/02/13 00:07:36;;;;;;;9.50;5.00;;;;;;;10.02;74.59;98837.77;79246;1302;3011559;-61
2024/02/13 00:10:08;;;;;;;11.60;5.00;;;;;;;9.98;74.47;98839.31;78017;1300;3053558;-61
2024/02/13 00:12:34;;;;;;;9.40;5.10;;;;;;;9.92;74.45;98839.33;79222;1302;3012049;-60
2024/02/13 00:15:03;;;;;;;7.40;4.60;;;;;;;9.93;74.43;98838.91;78087;1300;3027422;-63
2024/02/13 00:17:30;;;;;;;9.70;4.90;;;;;;;9.84;74.44;98839.33;79342;1295;3011943;-64
2024/02/13 00:19:57;;;;;;;6.80;5.00;;;;;;;9.81;74.44;98842.55;79353;1296;3011862;-64
2024/02/13 00:22:25;;;;;;;8.80;4.50;;;;;;;9.87;74.30;98841.59;78083;1301;3049291;-59
2024/02/13 00:24:52;;;;;;;9.80;4.90;;;;;;;9.85;74.16;98839.98;79271;1305;3013336;-66
2024/02/13 00:27:18;;;;;;;9.70;5.30;;;;;;;9.81;74.36;98839.02;79292;1300;3011644;-58
2024/02/13 00:29:47;;;;;;;8.60;4.50;;;;;;;9.84;73.90;98836.88;78115;1300;3028623;-62
2024/02/13 00:32:13;;;;;;;7.90;4.40;;;;;;;9.85;73.71;98835.61;79375;1302;3013637;-63
2024/02/13 00:34:40;;;;;;;9.00;5.20;;;;;;;9.82;73.98;98836.52;79243;1296;3013195;-65
2024/02/13 00:37:08;;;;;;;10.70;5.10;;;;;;;9.80;74.01;98834.73;78024;1298;3049815;-62
2024/02/13 00:39:35;;;;;;;9.10;4.80;;;;;;;9.78;74.02;98832.44;79286;1302;3014410;-62
2024/02/13 00:42:03;;;;;;;8.90;5.20;;;;;;;9.75;74.07;98834.36;79321;1301;3013259;-64
2024/02/13 00:44:31;;;;;;;8.00;4.20;;;;;;;9.73;74.07;98833.98;78134;1301;3051185;-60
2024/02/13 00:46:58;;;;;;;8.60;5.10;;;;;;;9.69;74.14;98835.47;79292;1296;3013674;-62
2024/02/13 00:49:24;;;;;;;8.70;5.00;;;;;;;9.70;74.39;98833.10;79217;1301;3011938;-60
2024/02/13 00:51:52;;;;;;;9.20;5.20;;;;;;;9.69;74.38;98830.25;78093;1295;3026764;-62
2024/02/13 00:54:19;;;;;;;7.10;4.90;;;;;;;9.61;74.67;98835.96;79286;1301;3019267;-60
2024/02/13 00:56:47;;;;;;;11.20;5.60;;;;;;;9.50;75.39;98833.59;79221;1301;3011713;-62
2024/02/13 00:59:16;;;;;;;8.50;5.00;;;;;;;9.53;75.61;98825.88;78344;1298;3050842;-59
2024/02/13 01:01:43;;;;;;;8.20;5.20;;;;;;;9.54;75.62;98821.20;79436;1302;3013458;-60
2024/02/13 01:04:10;;;;;;;14.80;5.70;;;;;;;9.48;76.11;98819.16;79471;1296;3012025;-61
2024/02/13 01:06:39;;;;;;;8.60;5.50;;;;;;;9.37;76.59;98823.92;78210;1298;3049501;-62
2024/02/13 01:09:05;;;;;;;9.70;5.50;;;;;;;9.35;76.71;98819.35;79466;1298;3013144;-62
2024/02/13 01:11:35;;;;;;;10.50;4.00;;;;;;;9.25;77.28;98816.11;79331;1296;3013330;-62
2024/02/13 01:14:03;;;;;;;9.20;4.10;;;;;;;9.75;76.41;98812.80;78133;1298;3052359;-61
2024/02/13 01:16:30;;;;;;;11.00;5.00;;;;;;;10.15;74.46;98809.11;79382;1296;3013717;-61
2024/02/13 01:18:57;;;;;;;9.60;5.60;;;;;;;10.30;74.10;98808.39;81341;1295;3011323;-62
2024/02/13 01:21:25;;;;;;;10.40;5.80;;;;;;;10.23;74.17;98814.81;79111;1295;3026560;-63
2024/02/13 01:23:51;;;;;;;9.20;6.10;;;;;;;9.94;75.17;98812.80;81940;1301;3018282;-62
2024/02/13 01:26:19;;;;;;;11.90;5.60;;;;;;;9.75;75.96;98807.08;81935;1295;3011432;-62
2024/02/13 01:28:47;;;;;;;14.20;6.10;;;;;;;9.74;76.14;98808.20;80689;1295;3051099;-62
2024/02/13 01:31:14;;;;;;;10.60;6.60;;;;;;;9.41;77.48;98802.02;79895;1296;3019192;-61
2024/02/13 01:33:43;;;;;;;12.20;6.70;;;;;;;9.36;78.08;98803.70;79399;1296;3011624;-62
2024/02/13 01:36:11;;;;;;;13.40;7.20;;;;;;;9.26;78.38;98802.30;78231;1298;3050022;-63
2024/02/13 01:38:38;;;;;;;11.80;6.70;;;;;;;9.03;79.68;98799.57;79404;1298;3013746;-62
2024/02/13 01:41:04;;;;;;;12.90;7.80;;;;;;;9.06;79.34;98798.30;79426;1298;3011414;-62
2024/02/13 01:43:32;;;;;;;14.70;7.30;;;;;;;9.01;79.68;98800.25;78141;1295;3028234;-62
2024/02/13 01:46:05;;;;;;;9.80;7.00;;;;;;;9.01;79.83;98793.97;79449;1298;3013301;-63
2024/02/13 01:48:38;;;;;;;10.00;5.00;;;;;;;8.98;80.07;98789.62;78256;1295;3053766;-61
2024/02/13 01:51:05;;;;;;;12.40;5.50;;;;;;;9.52;78.60;98796.89;79361;1296;3011854;-61
2024/02/13 01:53:35;;;;;;;9.50;6.00;;;;;;;9.95;76.51;98799.42;78214;1299;3051371;-61
2024/02/13 01:56:02;;;;;;;11.40;6.20;;;;;;;10.08;75.61;98797.34;79483;1298;3011892;-61
2024/02/13 01:58:31;;;;;;;11.10;7.00;;;;;;;9.84;76.22;98799.11;78968;1296;3011962;-61
2024/02/13 02:01:01;;;;;;;11.00;6.60;;;;;;;9.72;76.49;98797.46;79318;1298;3013468;-62
2024/02/13 02:03:34;;;;;;;10.00;6.70;;;;;;;9.57;76.87;98797.77;78958;1301;3013220;-61
2024/02/13 02:06:03;;;;;;;13.00;7.30;;;;;;;9.40;77.31;98799.63;79385;1295;3011569;-61
2024/02/13 02:08:31;;;;;;;11.20;7.00;;;;;;;9.25;77.57;98795.71;78321;1298;3053622;-59
2024/02/13 02:10:58;;;;;;;13.70;7.50;;;;;;;9.21;77.74;98789.81;79474;1298;3012702;-61
2024/02/13 02:13:27;;;;;;;11.40;7.40;;;;;;;9.05;77.91;98783.86;79411;1298;3013740;-61
2024/02/13 02:15:56;;;;;;;15.20;7.60;;;;;;;9.06;78.06;98785.73;78011;1296;3068200;-58
2024/02/13 02:18:26;;;;;;;11.90;7.40;;;;;;;9.11;77.94;98787.00;79375;1295;3013064;-61
2024/02/13 02:20:56;;;;;;;14.20;7.50;;;;;;;9.09;78.14;98785.90;78724;1296;3011869;-58
2024/02/13 02:23:22;;;;;;;12.10;7.50;;;;;;;9.09;78.13;98790.64;79396;1295;3014761;-61
2024/02/13 02:25:50;;;;;;;13.20;7.00;;;;;;;9.07;77.76;98791.62;79217;1295;3013012;-62
2024/02/13 02:28:18;;;;;;;12.80;7.90;;;;;;;9.06;77.76;98788.20;78191;1299;3051533;-63
2024/02/13 02:30:45;;;;;;;12.70;6.90;;;;;;;9.03;77.60;98793.60;79243;1301;3013437;-62
2024/02/13 02:33:13;;;;;;;10.00;6.90;;;;;;;9.01;77.71;98792.20;79230;1301;3011920;-62
2024/02/13 02:35:41;;;;;;;8.90;5.10;;;;;;;9.01;77.88;98793.08;78068;1295;3055826;-61
2024/02/13 02:38:09;;;;;;;9.40;4.80;;;;;;;9.48;76.48;98791.90;79263;1297;3012633;-61
2024/02/13 02:40:40;;;;;;;12.00;5.80;;;;;;;10.06;74.24;98789.61;79312;1296;3011526;-63
2024/02/13 02:43:07;;;;;;;13.10;6.50;;;;;;;10.09;73.39;98787.25;78063;1301;3053266;-61
2024/02/13 02:45:34;;;;;;;10.50;6.00;;;;;;;9.93;73.38;98789.08;79228;1300;3013432;-61
2024/02/13 02:48:01;;;;;;;13.80;6.90;;;;;;;9.90;73.66;98792.60;79246;1301;3011773;-61
2024/02/13 02:50:29;;;;;;;14.20;6.50;;;;;;;9.75;74.15;98788.16;78026;1300;3056070;-61
2024/02/13 02:52:56;;;;;;;14.30;7.20;;;;;;;9.60;74.39;98788.31;79217;1301;3013234;-61
2024/02/13 02:55:23;;;;;;;10.00;6.80;;;;;;;9.41;75.01;98784.17;79178;1295;3011997;-62
2024/02/13 02:57:52;;;;;;;12.50;7.40;;;;;;;9.43;74.48;98786.46;78268;1295;3026467;-61
2024/02/13 03:00:20;;;;;;;11.90;6.90;;;;;;;9.36;74.81;98790.09;79362;1295;3014065;-63
2024/02/13 03:02:46;;;;;;;18.00;7.30;;;;;;;9.34;74.55;98790.93;79346;1295;3013014;-63
2024/02/13 03:05:16;;;;;;;10.40;6.80;;;;;;;9.32;74.41;98796.13;78174;1298;3056655;-62
2024/02/13 03:07:45;;;;;;;13.50;7.10;;;;;;;9.24;74.85;98797.52;79456;1295;3011723;-60
2024/02/13 03:10:13;;;;;;;14.60;8.10;;;;;;;9.16;75.19;98799.63;78145;1298;3050385;-64
2024/02/13 03:12:40;;;;;;;8.80;6.50;;;;;;;9.13;75.73;98806.10;79433;1298;3013003;-60
2024/02/13 03:15:07;;;;;;;13.30;7.70;;;;;;;9.08;76.13;98807.49;79186;1298;3013738;-60
2024/02/13 03:17:37;;;;;;;13.60;7.50;;;;;;;9.06;76.14;98807.09;78064;1300;3051908;-60
2024/02/13 03:20:07;;;;;;;17.60;8.20;;;;;;;9.04;75.94;98804.60;79285;1295;3013116;-62
2024/02/13 03:22:37;;;;;;;13.80;7.90;;;;;;;9.02;76.16;98799.62;77947;1301;3051723;-61
2024/02/13 03:25:07;;;;;;;16.80;7.70;;;;;;;8.94;76.39;98797.69;79202;1295;3013235;-61
2024/02/13 03:27:35;;;;;;;12.90;6.90;;;;;;;8.91;76.67;98796.84;78009;1300;3051929;-60
2024/02/13 03:30:02;;;;;;;11.30;7.80;;;;;;;8.90;76.44;98796.05;79265;1295;3013579;-60
2024/02/13 03:32:29;;;;;;;11.80;7.50;;;;;;;8.91;76.71;98790.94;79425;1295;3014063;-60
2024/02/13 03:34:57;;;;;;;12.70;7.80;;;;;;;8.90;76.14;98789.07;78146;1301;3055555;-63
2024/02/13 03:37:23;;;;;;;9.90;5.90;;;;;;;8.97;75.82;98787.04;79346;1295;3012889;-61
2024/02/13 03:39:50;;;;;;;15.30;7.80;;;;;;;9.06;75.33;98788.73;79199;1295;3011752;-60
2024/02/13 03:42:18;;;;;;;13.60;7.30;;;;;;;9.04;75.35;98789.03;78204;1295;3025673;-60
2024/02/13 03:44:45;;;;;;;12.20;8.00;;;;;;;9.08;75.10;98783.88;79289;1301;3012764;-62
2024/02/13 03:47:12;;;;;;;14.40;8.00;;;;;;;9.08;75.17;98782.47;79257;1301;3011554;-61
2024/02/13 03:49:40;;;;;;;13.60;7.30;;;;;;;9.08;75.03;98781.75;78069;1301;3056162;-61
2024/02/13 03:52:09;;;;;;;14.50;7.30;;;;;;;9.14;74.63;98783.48;79258;1295;3013813;-60
2024/02/13 03:54:38;;;;;;;10.50;6.90;;;;;;;9.16;74.75;98776.05;78860;1295;3012012;-61
2024/02/13 03:57:05;;;;;;;10.70;7.30;;;;;;;9.20;74.49;98774.71;79353;1301;3019213;-62
2024/02/13 03:59:32;;;;;;;13.50;7.60;;;;;;;9.24;74.54;98775.29;79466;1298;3011711;-62
2024/02/13 04:01:59;;;;;;;12.70;7.50;;;;;;;9.28;74.19;98776.63;77403;1295;3025535;-61
2024/02/13 04:04:25;;;;;;;13.30;7.60;;;;;;;9.28;74.29;98777.48;79568;1295;3013631;-64
2024/02/13 04:06:52;;;;;;;14.10;7.30;;;;;;;9.29;74.35;98780.08;79466;1298;3011764;-62
2024/02/13 04:09:20;;;;;;;17.90;7.90;;;;;;;9.32;74.03;98781.97;78248;1296;3026614;-61
2024/02/13 04:11:47;;;;;;;11.40;7.20;;;;;;;9.32;74.36;98784.05;79486;1298;3018978;-63
2024/02/13 04:14:14;;;;;;;16.00;7.90;;;;;;;9.39;73.92;98783.92;79373;1298;3012836;-63
2024/02/13 04:16:42;;;;;;;13.30;7.50;;;;;;;9.43;74.02;98779.84;79192;1294;3069398;-60
2024/02/13 04:19:11;;;;;;;12.00;7.40;;;;;;;9.43;73.89;98781.77;79436;1296;3013146;-60
2024/02/13 04:21:38;;;;;;;12.00;7.40;;;;;;;9.46;73.85;98784.23;79510;1295;3013614;-62
2024/02/13 04:24:08;;;;;;;11.80;7.40;;;;;;;9.47;74.11;98786.76;78101;1296;3054524;-63
2024/02/13 04:26:39;;;;;;;12.40;8.00;;;;;;;9.45;74.47;98793.88;79355;1298;3011496;-60
2024/02/13 04:29:08;;;;;;;12.10;7.10;;;;;;;9.47;74.52;98791.84;78236;1295;3052894;-65
2024/02/13 04:31:35;;;;;;;11.00;7.00;;;;;;;9.50;74.37;98792.65;79318;1298;3013268;-60
2024/02/13 04:34:02;;;;;;;15.40;7.40;;;;;;;9.51;74.34;98791.73;79322;1298;3011455;-62
2024/02/13 04:36:31;;;;;;;11.20;6.90;;;;;;;9.46;74.75;98794.66;78248;1298;3057741;-62
2024/02/13 04:38:58;;;;;;;13.80;7.90;;;;;;;9.51;74.68;98795.17;79171;1298;3011666;-62
2024/02/13 04:41:25;;;;;;;12.60;7.40;;;;;;;9.49;74.67;98800.04;79200;1295;3011953;-60
2024/02/13 04:43:54;;;;;;;12.20;7.80;;;;;;;9.49;74.63;98801.67;78004;1295;3052725;-60
2024/02/13 04:46:24;;;;;;;13.00;7.90;;;;;;;9.45;74.72;98802.95;79264;1300;3012848;-59
2024/02/13 04:48:52;;;;;;;12.90;6.80;;;;;;;9.51;74.77;98803.60;77965;1296;3052154;-62
2024/02/13 04:51:19;;;;;;;13.30;7.60;;;;;;;9.49;74.42;98814.96;79228;1300;3019240;-63
2024/02/13 04:53:46;;;;;;;14.90;8.60;;;;;;;9.41;74.75;98828.39;79256;1301;3011834;-62
2024/02/13 04:56:14;;;;;;;11.30;8.00;;;;;;;9.32;75.33;98827.06;77933;1300;3026669;-63
2024/02/13 04:58:41;;;;;;;14.30;8.80;;;;;;;9.23;75.94;98830.46;79617;1298;3018450;-61
2024/02/13 05:01:10;;;;;;;18.10;9.20;;;;;;;9.12;76.39;98833.61;79264;1298;3011862;-62
2024/02/13 05:03:41;;;;;;;11.40;8.30;;;;;;;9.11;76.75;98834.02;78153;1296;3052389;-62
2024/02/13 05:08:55;;;;;;;13.20;7.80;;;;;;;9.60;75.91;98845.98;78435;1295;3048473;-62
2024/02/13 05:11:26;;;;;;;20.50;8.10;;;;;;;9.85;74.45;98848.40;79371;1298;3011514;-61
2024/02/13 05:13:56;;;;;;;13.70;8.70;;;;;;;9.87;74.29;98853.31;79195;1295;3013559;-61
2024/02/13 05:16:24;;;;;;;17.30;8.80;;;;;;;9.81;74.50;98855.24;79717;1298;3013655;-59
2024/02/13 05:18:51;;;;;;;22.20;9.30;;;;;;;9.55;75.68;98850.55;79328;1296;3011549;-66
2024/02/13 05:21:20;;;;;;;15.40;9.20;;;;;;;9.36;76.44;98847.56;78085;1300;3051757;-63
2024/02/13 05:23:47;;;;;;;13.80;8.80;;;;;;;9.07;77.38;98856.08;79279;1295;3014917;-62
2024/02/13 05:26:14;;;;;;;15.40;9.50;;;;;;;9.04;77.89;98860.45;79318;1295;3011616;-61
2024/02/13 05:28:42;;;;;;;19.30;10.10;;;;;;;8.88;78.55;98862.50;78019;1300;3050136;-63
2024/02/13 05:31:09;;;;;;;16.40;8.80;;;;;;;8.77;79.03;98865.52;79255;1301;3014895;-62
2024/02/13 05:33:36;;;;;;;16.40;9.50;;;;;;;8.73;79.16;98867.67;79344;1299;3011553;-63
2024/02/13 05:36:04;;;;;;;18.40;10.00;;;;;;;8.69;79.46;98869.64;78212;1300;3051203;-61
2024/02/13 05:38:40;;;;;;;16.30;10.70;;;;;;;8.58;80.02;98869.79;79564;1295;3012956;-61
2024/02/13 05:41:08;;;;;;;15.40;7.40;;;;;;;8.62;80.03;98866.27;77952;1300;3053814;-64
2024/02/13 05:43:35;;;;;;;18.00;7.70;;;;;;;9.08;78.65;98867.59;79270;1299;3013743;-61
2024/02/13 05:46:02;;;;;;;17.90;9.30;;;;;;;9.74;76.16;98866.08;79284;1301;3011660;-61
2024/02/13 05:48:30;;;;;;;19.40;10.20;;;;;;;9.75;75.52;98870.05;78593;1295;3068395;-61
2024/02/13 05:50:57;;;;;;;18.70;10.00;;;;;;;9.67;75.80;98874.09;79244;1295;3013256;-62
2024/02/13 05:53:26;;;;;;;21.20;11.30;;;;;;;9.55;75.83;98878.88;79328;1300;3011491;-63
2024/02/13 05:55:55;;;;;;;19.80;11.00;;;;;;;9.33;76.67;98879.77;77960;1295;3052946;-63
2024/02/13 05:58:27;;;;;;;22.40;11.00;;;;;;;9.23;77.05;98886.20;79645;1298;3013317;-61
2024/02/13 06:00:56;;;;;;;22.30;12.70;;;;;;;9.28;77.20;98883.27;78085;1301;3052940;-63
2024/02/13 06:03:24;;;;;;;21.00;12.30;;;;;;;9.28;77.22;98884.12;79350;1301;3013467;-64
2024/02/13 06:05:52;;;;;;;25.60;11.80;;;;;;;9.24;77.48;98885.95;79473;1295;3011577;-60
2024/02/13 06:08:20;;;;;;;23.30;12.10;;;;;;;9.16;77.82;98880.88;78251;1298;3048766;-62
2024/02/13 06:10:47;;;;;;;20.70;11.50;;;;;;;9.06;78.16;98884.31;79495;1295;3013952;-63
2024/02/13 06:13:14;;;;;;;22.30;12.20;;;;;;;9.05;78.51;98885.55;79450;1295;3013158;-63
2024/02/13 06:15:42;;;;;;;23.40;11.80;;;;;;;8.91;78.75;98883.67;78275;1298;3053549;-61
2024/02/13 06:18:09;;;;;;;19.60;11.70;;;;;;;8.89;79.35;98883.29;79545;1298;3018997;-62
2024/02/13 06:20:35;;;;;;;26.70;14.10;;;;;;;8.88;79.15;98884.86;79459;1298;3012338;-63
2024/02/13 06:23:03;;;;;;;16.10;8.60;;;;;;;8.85;79.58;98888.73;78339;1295;3028665;-63
2024/02/13 06:25:30;;;;;;;16.20;10.40;;;;;;;9.35;78.01;98891.85;79747;1295;3013462;-64
2024/02/13 06:27:56;;;;;;;17.50;10.30;;;;;;;9.87;75.88;98893.73;79386;1298;3011821;-64
2024/02/13 06:30:24;;;;;;;19.00;9.90;;;;;;;10.02;74.90;98890.64;78289;1298;3025976;-66
2024/02/13 06:32:51;;;;;;;15.40;10.50;;;;;;;9.89;74.96;98895.03;79582;1295;3018267;-62
2024/02/13 06:35:18;;;;;;;22.80;10.80;;;;;;;9.83;75.26;98894.55;79437;1298;3011867;-67
2024/02/13 06:37:46;;;;;;;19.70;10.60;;;;;;;9.72;75.26;98899.43;78240;1298;3026590;-64
2024/02/13 06:40:14;;;;;;;18.80;11.30;;;;;;;9.55;75.86;98901.74;79464;1295;3021339;-63
2024/02/13 06:42:41;;;;;;;17.40;11.10;;;;;;;9.52;76.51;98904.63;79405;1296;3011814;-60
2024/02/13 06:45:10;;;;;;;21.80;11.50;;;;;;;9.49;76.56;98900.45;78259;1298;3052145;-63
2024/02/13 06:47:37;;;;;;;17.30;11.30;;;;;;;9.50;76.77;98899.83;79424;1298;3014369;-60
2024/02/13 06:50:11;;;;;;;19.40;12.00;;;;;;;9.45;76.93;98898.59;79623;1294;3013173;-62
2024/02/13 06:52:39;;;;;;;21.50;11.20;;;;;;;9.44;76.77;98895.67;78253;1298;3048514;-64
2024/02/13 06:55:10;;;;;;;19.70;10.20;;;;;;;9.46;76.91;98901.65;79438;1295;3013908;-61
2024/02/13 06:57:38;;;;;;;15.80;10.40;;;;;;;9.49;76.86;98902.47;78329;1295;3051885;-62
2024/02/13 07:00:13;;;;;;;21.80;11.40;;;;;;;9.55;76.70;98908.77;79461;1298;3020745;-63
2024/02/13 07:02:41;;;;;;;19.90;11.90;;;;;;;9.55;77.03;98903.84;78318;1296;3052919;-62
2024/02/13 07:05:11;;;;;;;21.40;11.90;;;;;;;9.60;76.82;98908.61;80095;1295;3018569;-61
2024/02/13 07:07:40;;;;;;;20.90;10.40;;;;;;;9.65;76.63;98910.74;79241;1298;3011647;-63
2024/02/13 07:10:07;;;;;;;17.20;10.70;;;;;;;9.63;76.74;98912.60;79400;1295;3018298;-64
2024/02/13 07:12:35;;;;;;;15.60;10.30;;;;;;;9.62;76.59;98909.91;79453;1296;3013195;-63
2024/02/13 07:15:08;;;;;;;16.10;10.70;;;;;;;9.52;76.83;98910.69;78371;1298;3053672;-60
2024/02/13 07:17:35;;;;;;;17.90;11.40;;;;;;;9.53;77.48;98915.88;79445;1298;3018588;-63
2024/02/13 07:20:01;;;;;;;12.60;7.50;;;;;;;9.52;77.81;98912.45;79380;1298;3011596;-63
2024/02/13 07:22:30;;;;;;;15.70;7.80;;;;;;;10.05;76.34;98915.25;78398;1295;3028690;-61
2024/02/13 07:24:58;;;;;;;19.80;9.10;;;;;;;10.59;74.25;98914.83;79771;1295;3019215;-62
2024/02/13 07:27:25;;;;;;;14.50;9.50;;;;;;;10.69;73.27;98913.72;79560;1294;3011914;-63
2024/02/13 07:29:55;;;;;;;19.30;10.30;;;;;;;10.72;73.38;98914.60;78277;1295;3052382;-60
2024/02/13 07:32:22;;;;;;;16.80;10.90;;;;;;;10.50;73.97;98917.33;79547;1295;3013213;-63
2024/02/13 07:34:49;;;;;;;16.60;9.90;;;;;;;10.36;74.57;98917.94;79543;1294;3011668;-61
2024/02/13 07:37:17;;;;;;;20.40;10.70;;;;;;;10.27;75.01;98920.25;78308;1298;3048968;-64
2024/02/13 07:39:44;;;;;;;17.20;10.40;;;;;;;10.07;75.58;98917.95;79690;1296;3013425;-62
2024/02/13 07:42:12;;;;;;;20.40;12.10;;;;;;;9.95;76.13;98918.24;79490;1298;3011987;-62
2024/02/13 07:44:40;;;;;;;16.80;11.10;;;;;;;9.90;76.60;98914.14;78223;1298;3053254;-64
2024/02/13 07:47:07;;;;;;;20.20;10.80;;;;;;;9.92;76.26;98919.27;79516;1295;3013767;-63
2024/02/13 07:49:34;;;;;;;25.40;13.00;;;;;;;9.94;76.29;98918.80;79454;1295;3014272;-61
2024/02/13 07:52:02;;;;;;;32.10;16.30;;;;;;;9.74;77.36;98918.20;78250;1298;3028606;-64
2024/02/13 07:54:29;;;;;;;32.10;15.50;;;;;;;9.63;78.13;98926.27;79468;1301;3013683;-61
2024/02/13 07:56:58;;;;;;;39.40;19.30;;;;;;;9.63;78.39;98929.42;79330;1295;3011795;-60
2024/02/13 07:59:26;;;;;;;80.40;30.30;;;;;;;9.65;78.48;98918.65;78445;1295;3052983;-64
2024/02/13 08:01:52;;;;;;;130.80;35.50;;;;;;;9.71;78.68;98904.76;79465;1298;3018802;-65
2024/02/13 08:04:19;;;;;;;132.30;34.90;;;;;;;10.42;77.55;98908.92;79383;1298;3011536;-62
2024/02/13 08:06:47;;;;;;;106.90;39.50;;;;;;;10.76;75.25;98929.40;78135;1295;3028107;-64
2024/02/13 08:09:14;;;;;;;66.10;28.40;;;;;;;11.10;75.04;98904.73;79553;1298;3013473;-66
2024/02/13 08:11:42;;;;;;;69.60;30.00;;;;;;;11.11;74.21;98921.09;79429;1298;3011588;-62
2024/02/13 08:14:10;;;;;;;61.40;30.30;;;;;;;10.77;74.89;98940.17;78467;1298;3053912;-64
2024/02/13 08:16:37;;;;;;;52.70;25.80;;;;;;;10.71;75.29;98936.71;79549;1298;3013037;-63
2024/02/13 08:19:04;;;;;;;46.30;23.00;;;;;;;10.62;75.28;98920.88;79785;1298;3012032;-63
2024/02/13 08:21:32;;;;;;;43.80;20.90;;;;;;;10.49;75.57;98925.14;78271;1298;3025980;-60
2024/02/13 08:23:58;;;;;;;44.20;23.20;;;;;;;10.40;75.83;98924.15;79543;1298;3013484;-66
2024/02/13 08:26:25;;;;;;;45.50;22.70;;;;;;;10.32;76.53;98927.28;79539;1295;3013362;-65
2024/02/13 08:28:53;;;;;;;37.00;20.40;;;;;;;10.25;76.56;98919.54;78283;1298;3028643;-65
2024/02/13 08:31:21;;;;;;;35.80;18.60;;;;;;;10.23;76.23;98922.29;79678;1295;3012973;-65
2024/02/13 08:33:47;;;;;;;34.20;19.80;;;;;;;10.20;76.63;98930.73;79577;1295;3011713;-66
2024/02/13 08:36:15;;;;;;;31.90;18.20;;;;;;;10.25;76.46;98925.13;78331;1295;3050100;-64
2024/02/13 08:38:44;;;;;;;34.50;16.40;;;;;;;10.30;76.32;98916.58;79487;1298;3013330;-62
2024/02/13 08:41:15;;;;;;;37.10;18.20;;;;;;;10.35;76.01;98920.61;79596;1296;3013653;-63
2024/02/13 08:43:43;;;;;;;31.70;17.80;;;;;;;10.33;76.09;98917.98;78031;1295;3052183;-63
2024/02/13 08:46:10;;;;;;;36.10;18.10;;;;;;;10.41;75.50;98916.52;79456;1296;3013161;-65
2024/02/13 08:48:37;;;;;;;34.50;17.20;;;;;;;10.46;75.07;98927.05;79288;1298;3013486;-69
2024/02/13 08:51:05;;;;;;;33.00;18.70;;;;;;;10.47;75.31;98919.82;78214;1295;3026341;-66
2024/02/13 08:53:33;;;;;;;33.40;17.10;;;;;;;10.50;75.51;98922.75;79786;1296;3013272;-66
2024/02/13 08:55:59;;;;;;;37.60;18.40;;;;;;;10.53;75.69;98916.90;79593;1295;3011895;-64
2024/02/13 08:58:28;;;;;;;34.10;18.30;;;;;;;10.51;75.48;98926.89;78362;1296;3053512;-65
2024/02/13 09:00:55;;;;;;;34.30;17.80;;;;;;;10.55;75.13;98918.01;80056;1298;3013446;-62
2024/02/13 09:03:22;;;;;;;37.30;18.80;;;;;;;10.59;75.89;98915.81;79813;1294;3012445;-65
2024/02/13 09:05:51;;;;;;;28.20;14.90;;;;;;;10.68;75.74;98904.53;78536;1295;3049078;-65
2024/02/13 09:08:18;;;;;;;31.20;16.40;;;;;;;10.74;75.13;98911.83;79690;1298;3013667;-65
2024/02/13 09:10:45;;;;;;;32.20;17.00;;;;;;;10.75;74.85;98912.98;79944;1294;3011635;-64
2024/02/13 09:13:16;;;;;;;36.20;19.50;;;;;;;10.73;74.68;98917.64;78371;1298;3052573;-63
2024/02/13 09:15:42;;;;;;;40.20;19.50;;;;;;;10.79;75.08;98911.28;79489;1296;3013727;-64
2024/02/13 09:18:11;;;;;;;44.30;21.00;;;;;;;10.86;75.56;98910.08;79346;1295;3011670;-61
2024/02/13 09:20:39;;;;;;;43.60;21.70;;;;;;;10.90;75.69;98912.06;79841;1298;3013030;-63
2024/02/13 09:23:08;;;;;;;37.40;19.70;;;;;;;10.92;75.72;98904.10;79377;1298;3012916;-60
2024/02/13 09:25:38;;;;;;;43.20;21.30;;;;;;;10.97;75.48;98903.36;78284;1298;3050189;-64
2024/02/13 09:28:05;;;;;;;38.70;20.60;;;;;;;11.00;75.55;98906.98;79575;1295;3013051;-62
2024/02/13 09:30:33;;;;;;;46.40;20.60;;;;;;;10.99;75.13;98909.52;79555;1296;3012940;-70
2024/02/13 09:33:01;;;;;;;41.40;20.70;;;;;;;10.97;75.18;98906.54;80099;1295;3051715;-62
2024/02/13 09:35:29;;;;;;;42.30;19.90;;;;;;;11.03;74.94;98908.20;79746;1298;3013577;-63
2024/02/13 09:37:56;;;;;;;39.80;20.90;;;;;;;11.06;74.88;98899.00;80316;1294;3011599;-62
2024/02/13 09:40:26;;;;;;;38.60;20.40;;;;;;;11.07;74.97;98891.42;78872;1298;3049819;-64
2024/02/13 09:42:52;;;;;;;37.70;20.10;;;;;;;11.09;74.93;98883.42;79607;1298;3013065;-62
2024/02/13 09:45:21;;;;;;;35.10;19.50;;;;;;;11.12;75.24;98881.30;79223;1300;3012407;-62
2024/02/13 09:47:49;;;;;;;38.80;19.50;;;;;;;11.19;75.31;98878.80;78269;1298;3051905;-63
2024/02/13 09:50:16;;;;;;;36.20;20.20;;;;;;;11.23;74.93;98882.23;79389;1295;3013070;-63
2024/02/13 09:52:55;;;;;;;43.60;21.40;;;;;;;11.27;74.46;98884.75;79666;1295;3011836;-63
2024/02/13 09:55:23;;;;;;;39.70;22.40;;;;;;;11.27;75.21;98881.06;78118;1301;3050523;-66
2024/02/13 09:57:51;;;;;;;36.50;21.40;;;;;;;11.24;76.28;98875.30;79381;1295;3013734;-64
2024/02/13 10:00:18;;;;;;;34.70;20.00;;;;;;;11.22;76.83;98876.67;79191;1296;3012766;-64
2024/02/13 10:02:49;;;;;;;28.30;13.90;;;;;;;11.21;77.23;98872.88;78282;1295;3051903;-61
2024/02/13 10:05:16;;;;;;;24.70;14.10;;;;;;;11.79;75.20;98871.13;79257;1295;3011505;-63
2024/02/13 10:07:44;;;;;;;27.70;15.20;;;;;;;12.31;72.71;98874.61;78257;1301;3028692;-64
2024/02/13 10:10:11;;;;;;;27.20;17.00;;;;;;;12.43;72.08;98888.40;79605;1295;3020499;-64
2024/02/13 10:12:48;;;;;;;30.90;16.90;;;;;;;12.30;71.78;98888.35;79538;1301;3013430;-64
2024/02/13 10:15:16;;;;;;;27.90;16.50;;;;;;;12.14;72.10;98887.27;77957;1301;3052667;-65
2024/02/13 10:17:45;;;;;;;31.00;17.80;;;;;;;11.92;71.80;98891.41;79358;1295;3013669;-64
2024/02/13 10:20:17;;;;;;;31.50;18.90;;;;;;;11.74;71.94;98890.79;79294;1295;3011482;-61
2024/02/13 10:22:46;;;;;;;29.40;17.80;;;;;;;11.58;72.41;98886.89;78050;1300;3050121;-62
2024/02/13 10:25:18;;;;;;;30.40;18.60;;;;;;;11.49;72.79;98886.66;79285;1296;3014989;-63
2024/02/13 10:27:45;;;;;;;28.00;18.20;;;;;;;11.28;73.73;98875.55;78171;1301;3052930;-63
2024/02/13 10:30:24;;;;;;;28.00;16.70;;;;;;;11.25;74.43;98866.69;79496;1298;3013266;-63
2024/02/13 10:32:52;;;;;;;28.90;17.20;;;;;;;11.26;74.58;98863.95;78108;1298;3052042;-65
2024/02/13 10:35:22;;;;;;;30.20;16.00;;;;;;;11.30;74.72;98860.70;79342;1295;3020842;-64
2024/02/13 10:37:50;;;;;;;24.60;15.80;;;;;;;11.32;74.78;98855.67;79135;1296;3011590;-65
2024/02/13 10:40:23;;;;;;;26.10;14.20;;;;;;;11.27;74.95;98849.84;79400;1301;3013231;-63
2024/02/13 10:42:50;;;;;;;20.20;14.10;;;;;;;11.29;75.21;98847.44;78335;1300;3051604;-63
2024/02/13 10:45:17;;;;;;;22.20;13.40;;;;;;;11.32;74.99;98847.98;79430;1300;3013643;-66
2024/02/13 10:47:54;;;;;;;23.90;14.30;;;;;;;11.29;74.74;98849.69;79211;1298;3011953;-65
2024/02/13 10:50:22;;;;;;;22.40;13.10;;;;;;;11.30;74.68;98851.58;78051;1301;3056474;-62
2024/02/13 10:52:50;;;;;;;21.90;13.20;;;;;;;11.29;74.81;98854.11;79316;1295;3013236;-65
2024/02/13 10:55:18;;;;;;;23.30;14.10;;;;;;;11.25;74.64;98847.92;79149;1295;3011686;-64
2024/02/13 10:57:46;;;;;;;24.30;12.50;;;;;;;11.23;74.99;98840.29;77994;1301;3053698;-64
2024/02/13 11:00:18;;;;;;;20.00;13.40;;;;;;;11.27;74.56;98831.13;79399;1299;3013084;-64
2024/02/13 11:02:48;;;;;;;20.60;12.90;;;;;;;11.27;75.07;98818.34;78186;1301;3051907;-65
2024/02/13 11:05:15;;;;;;;21.40;12.10;;;;;;;11.24;75.34;98809.07;79323;1295;3013583;-65
2024/02/13 11:07:42;;;;;;;19.20;12.20;;;;;;;11.21;75.65;98802.96;79515;1295;3011663;-65
2024/02/13 11:10:09;;;;;;;19.50;12.00;;;;;;;11.21;76.07;98803.35;78429;1300;3050156;-64
2024/02/13 11:12:37;;;;;;;15.80;11.20;;;;;;;11.19;76.28;98793.16;79749;1301;3012831;-64
2024/02/13 11:15:08;;;;;;;18.20;12.20;;;;;;;11.15;76.28;98792.21;79582;1303;3011719;-65
2024/02/13 11:17:45;;;;;;;23.50;13.40;;;;;;;11.15;76.44;98787.29;78312;1295;3052097;-65